sensor_id;sensor_type;location;lat;lon;timestamp;pressure;altitude;pressure_sealevel;temperature
29701;BMP280;57917;51.380;-0.176;2023-07-08T00:05:22;100970.88;;;22.41
29701;BMP280;57917;51.380;-0.176;2023-07-08T00:11:11;100962.22;;;22.32
29701;BMP280;57917;51.380;-0.176;2023-07-08T00:17:10;100963.06;;;22.36
29701;BMP280;57917;51.380;-0.176;2023-07-08T00:23:00;100965.94;;;22.43
29701;BMP280;57917;51.380;-0.176;2023-07-08T00:28:48;100965.81;;;22.55
29701;BMP280;57917;51.380;-0.176;2023-07-08T00:34:35;100959.88;;;22.84
29701;BMP280;57917;51.380;-0.176;2023-07-08T00:40:24;100954.53;;;22.87
29701;BMP280;57917;51.380;-0.176;2023-07-08T00:46:25;100952.69;;;22.91
29701;BMP280;57917;51.380;-0.176;2023-07-08T00:52:27;100949.41;;;22.82
29701;BMP280;57917;51.380;-0.176;2023-07-08T00:58:17;100933.53;;;22.77
29701;BMP280;57917;51.380;-0.176;2023-07-08T01:04:19;100927.22;;;22.70
29701;BMP280;57917;51.380;-0.176;2023-07-08T01:10:10;100924.91;;;22.72
29701;BMP280;57917;51.380;-0.176;2023-07-08T01:16:00;100918.72;;;22.71
29701;BMP280;57917;51.380;-0.176;2023-07-08T01:27:47;100913.91;;;22.61
29701;BMP280;57917;51.380;-0.176;2023-07-08T01:33:37;100910.13;;;22.66
29701;BMP280;57917;51.380;-0.176;2023-07-08T01:39:28;100912.19;;;22.72
29701;BMP280;57917;51.380;-0.176;2023-07-08T01:45:19;100903.41;;;22.41
29701;BMP280;57917;51.380;-0.176;2023-07-08T01:51:07;100892.66;;;22.60
29701;BMP280;57917;51.380;-0.176;2023-07-08T01:56:57;100898.19;;;22.67
29701;BMP280;57917;51.380;-0.176;2023-07-08T02:02:47;100888.09;;;22.83
29701;BMP280;57917;51.380;-0.176;2023-07-08T02:08:36;100906.00;;;22.53
29701;BMP280;57917;51.380;-0.176;2023-07-08T02:14:23;100898.69;;;22.53
29701;BMP280;57917;51.380;-0.176;2023-07-08T02:20:12;100895.34;;;22.60
29701;BMP280;57917;51.380;-0.176;2023-07-08T02:26:01;100890.75;;;22.60
29701;BMP280;57917;51.380;-0.176;2023-07-08T02:31:50;100886.00;;;22.54
29701;BMP280;57917;51.380;-0.176;2023-07-08T02:37:37;100876.31;;;22.34
29701;BMP280;57917;51.380;-0.176;2023-07-08T02:43:25;100881.00;;;22.18
29701;BMP280;57917;51.380;-0.176;2023-07-08T02:49:13;100895.44;;;22.09
29701;BMP280;57917;51.380;-0.176;2023-07-08T02:55:00;100898.66;;;21.99
29701;BMP280;57917;51.380;-0.176;2023-07-08T03:00:53;100901.03;;;22.01
29701;BMP280;57917;51.380;-0.176;2023-07-08T03:06:44;100904.63;;;22.24
29701;BMP280;57917;51.380;-0.176;2023-07-08T03:12:32;100886.50;;;22.40
29701;BMP280;57917;51.380;-0.176;2023-07-08T03:18:21;100895.59;;;22.70
29701;BMP280;57917;51.380;-0.176;2023-07-08T03:24:13;100898.50;;;22.81
29701;BMP280;57917;51.380;-0.176;2023-07-08T03:30:04;100894.53;;;22.97
29701;BMP280;57917;51.380;-0.176;2023-07-08T03:35:54;100903.38;;;22.94
29701;BMP280;57917;51.380;-0.176;2023-07-08T03:41:47;100899.00;;;22.86
29701;BMP280;57917;51.380;-0.176;2023-07-08T03:47:35;100907.16;;;22.71
29701;BMP280;57917;51.380;-0.176;2023-07-08T03:53:23;100915.09;;;22.64
29701;BMP280;57917;51.380;-0.176;2023-07-08T03:59:12;100908.56;;;22.65
29701;BMP280;57917;51.380;-0.176;2023-07-08T04:05:00;100915.81;;;22.61
29701;BMP280;57917;51.380;-0.176;2023-07-08T04:10:47;100923.19;;;22.45
29701;BMP280;57917;51.380;-0.176;2023-07-08T04:16:58;100917.56;;;22.53
29701;BMP280;57917;51.380;-0.176;2023-07-08T04:22:49;100915.25;;;22.52
29701;BMP280;57917;51.380;-0.176;2023-07-08T04:28:37;100928.81;;;22.55
29701;BMP280;57917;51.380;-0.176;2023-07-08T04:34:24;100923.09;;;22.41
29701;BMP280;57917;51.380;-0.176;2023-07-08T04:40:17;100927.59;;;22.53
29701;BMP280;57917;51.380;-0.176;2023-07-08T04:46:14;100924.25;;;22.78
29701;BMP280;57917;51.380;-0.176;2023-07-08T04:52:06;100927.44;;;23.67
29701;BMP280;57917;51.380;-0.176;2023-07-08T04:57:54;100922.75;;;24.42
29701;BMP280;57917;51.380;-0.176;2023-07-08T05:03:41;100930.84;;;25.11
29701;BMP280;57917;51.380;-0.176;2023-07-08T05:09:32;100940.94;;;25.61
29701;BMP280;57917;51.380;-0.176;2023-07-08T05:15:21;100933.06;;;26.00
29701;BMP280;57917;51.380;-0.176;2023-07-08T05:21:12;100946.53;;;26.64
29701;BMP280;57917;51.380;-0.176;2023-07-08T05:27:01;100945.06;;;27.23
29701;BMP280;57917;51.380;-0.176;2023-07-08T05:32:48;100960.59;;;27.33
29701;BMP280;57917;51.380;-0.176;2023-07-08T05:38:35;100976.50;;;27.76
29701;BMP280;57917;51.380;-0.176;2023-07-08T05:44:21;100962.84;;;28.04
29701;BMP280;57917;51.380;-0.176;2023-07-08T05:50:11;100977.13;;;28.29
29701;BMP280;57917;51.380;-0.176;2023-07-08T05:56:04;100982.34;;;27.82
29701;BMP280;57917;51.380;-0.176;2023-07-08T06:01:51;100974.91;;;26.81
29701;BMP280;57917;51.380;-0.176;2023-07-08T06:07:40;100978.44;;;26.03
29701;BMP280;57917;51.380;-0.176;2023-07-08T06:13:26;100985.06;;;25.55
29701;BMP280;57917;51.380;-0.176;2023-07-08T06:19:15;101000.91;;;25.13
29701;BMP280;57917;51.380;-0.176;2023-07-08T06:25:10;101006.97;;;24.70
29701;BMP280;57917;51.380;-0.176;2023-07-08T06:31:02;101030.97;;;25.01
29701;BMP280;57917;51.380;-0.176;2023-07-08T06:36:50;101036.47;;;24.75
29701;BMP280;57917;51.380;-0.176;2023-07-08T06:42:37;101044.59;;;24.75
29701;BMP280;57917;51.380;-0.176;2023-07-08T06:48:38;101061.69;;;24.82
29701;BMP280;57917;51.380;-0.176;2023-07-08T06:54:26;101047.22;;;24.71
29701;BMP280;57917;51.380;-0.176;2023-07-08T07:00:14;101073.25;;;25.09
29701;BMP280;57917;51.380;-0.176;2023-07-08T07:06:02;101080.84;;;25.66
29701;BMP280;57917;51.380;-0.176;2023-07-08T07:11:49;101065.69;;;26.08
29701;BMP280;57917;51.380;-0.176;2023-07-08T07:17:37;101063.47;;;26.24
29701;BMP280;57917;51.380;-0.176;2023-07-08T07:23:24;101059.69;;;26.36
29701;BMP280;57917;51.380;-0.176;2023-07-08T07:29:11;101068.53;;;26.26
29701;BMP280;57917;51.380;-0.176;2023-07-08T07:34:58;101062.00;;;26.34
29701;BMP280;57917;51.380;-0.176;2023-07-08T07:40:46;101068.22;;;26.38
29701;BMP280;57917;51.380;-0.176;2023-07-08T07:46:33;101080.75;;;26.53
29701;BMP280;57917;51.380;-0.176;2023-07-08T07:52:22;101092.53;;;26.20
29701;BMP280;57917;51.380;-0.176;2023-07-08T07:58:13;101113.00;;;26.07
29701;BMP280;57917;51.380;-0.176;2023-07-08T08:04:00;101105.38;;;25.80
29701;BMP280;57917;51.380;-0.176;2023-07-08T08:09:48;101125.72;;;25.63
29701;BMP280;57917;51.380;-0.176;2023-07-08T08:15:35;101159.56;;;25.40
29701;BMP280;57917;51.380;-0.176;2023-07-08T08:21:24;101163.66;;;24.97
29701;BMP280;57917;51.380;-0.176;2023-07-08T08:27:14;101169.75;;;24.91
29701;BMP280;57917;51.380;-0.176;2023-07-08T08:33:04;101192.56;;;25.16
29701;BMP280;57917;51.380;-0.176;2023-07-08T08:38:51;101192.44;;;25.35
29701;BMP280;57917;51.380;-0.176;2023-07-08T08:44:39;101183.53;;;25.38
29701;BMP280;57917;51.380;-0.176;2023-07-08T08:50:42;101191.47;;;25.53
29701;BMP280;57917;51.380;-0.176;2023-07-08T09:02:58;101188.00;;;26.87
29701;BMP280;57917;51.380;-0.176;2023-07-08T09:08:49;101186.75;;;27.56
29701;BMP280;57917;51.380;-0.176;2023-07-08T09:14:37;101181.75;;;28.28
29701;BMP280;57917;51.380;-0.176;2023-07-08T09:20:29;101183.31;;;28.43
29701;BMP280;57917;51.380;-0.176;2023-07-08T09:26:21;101184.78;;;28.75
29701;BMP280;57917;51.380;-0.176;2023-07-08T09:32:19;101193.66;;;28.97
29701;BMP280;57917;51.380;-0.176;2023-07-08T09:38:17;101194.31;;;29.29
29701;BMP280;57917;51.380;-0.176;2023-07-08T09:44:18;101206.78;;;29.23
29701;BMP280;57917;51.380;-0.176;2023-07-08T09:56:05;101212.06;;;29.61
29701;BMP280;57917;51.380;-0.176;2023-07-08T10:01:55;101199.81;;;30.27
29701;BMP280;57917;51.380;-0.176;2023-07-08T10:07:44;101203.16;;;29.50
29701;BMP280;57917;51.380;-0.176;2023-07-08T10:13:40;101220.13;;;29.07
29701;BMP280;57917;51.380;-0.176;2023-07-08T10:19:40;101229.47;;;29.02
29701;BMP280;57917;51.380;-0.176;2023-07-08T10:25:43;101256.72;;;29.13
29701;BMP280;57917;51.380;-0.176;2023-07-08T10:38:19;101277.47;;;28.12
29701;BMP280;57917;51.380;-0.176;2023-07-08T10:44:28;101299.75;;;27.43
29701;BMP280;57917;51.380;-0.176;2023-07-08T11:09:03;101293.28;;;27.72
29701;BMP280;57917;51.380;-0.176;2023-07-08T11:21:05;101236.50;;;27.63
29701;BMP280;57917;51.380;-0.176;2023-07-08T11:27:06;101257.88;;;27.68
29701;BMP280;57917;51.380;-0.176;2023-07-08T11:33:04;101268.28;;;27.42
29701;BMP280;57917;51.380;-0.176;2023-07-08T11:38:56;101263.50;;;27.18
29701;BMP280;57917;51.380;-0.176;2023-07-08T11:45:38;101262.41;;;26.68
29701;BMP280;57917;51.380;-0.176;2023-07-08T11:51:31;101246.47;;;26.20
29701;BMP280;57917;51.380;-0.176;2023-07-08T11:57:37;101239.59;;;25.93
29701;BMP280;57917;51.380;-0.176;2023-07-08T12:03:41;101247.47;;;25.68
29701;BMP280;57917;51.380;-0.176;2023-07-08T12:09:45;101279.84;;;25.28
29701;BMP280;57917;51.380;-0.176;2023-07-08T12:15:37;101298.63;;;25.44
29701;BMP280;57917;51.380;-0.176;2023-07-08T12:21:27;101337.94;;;25.57
29701;BMP280;57917;51.380;-0.176;2023-07-08T12:27:14;101365.59;;;25.40
29701;BMP280;57917;51.380;-0.176;2023-07-08T12:33:04;101367.47;;;25.10
29701;BMP280;57917;51.380;-0.176;2023-07-08T12:38:59;101343.91;;;24.69
29701;BMP280;57917;51.380;-0.176;2023-07-08T12:44:48;101377.94;;;24.70
29701;BMP280;57917;51.380;-0.176;2023-07-08T12:50:36;101365.00;;;24.22
29701;BMP280;57917;51.380;-0.176;2023-07-08T12:56:24;101355.13;;;23.57
29701;BMP280;57917;51.380;-0.176;2023-07-08T13:02:19;101346.19;;;23.41
29701;BMP280;57917;51.380;-0.176;2023-07-08T13:08:12;101373.06;;;23.65
29701;BMP280;57917;51.380;-0.176;2023-07-08T13:14:04;101354.25;;;23.87
29701;BMP280;57917;51.380;-0.176;2023-07-08T13:19:57;101355.47;;;24.47
29701;BMP280;57917;51.380;-0.176;2023-07-08T13:25:47;101371.53;;;25.49
29701;BMP280;57917;51.380;-0.176;2023-07-08T13:31:38;101319.78;;;25.61
29701;BMP280;57917;51.380;-0.176;2023-07-08T13:37:30;101313.25;;;25.36
29701;BMP280;57917;51.380;-0.176;2023-07-08T13:43:39;101315.78;;;25.81
29701;BMP280;57917;51.380;-0.176;2023-07-08T13:49:32;101308.16;;;25.90
29701;BMP280;57917;51.380;-0.176;2023-07-08T13:55:26;101310.72;;;26.12
29701;BMP280;57917;51.380;-0.176;2023-07-08T14:01:20;101302.53;;;26.42
29701;BMP280;57917;51.380;-0.176;2023-07-08T14:07:19;101287.91;;;26.57
29701;BMP280;57917;51.380;-0.176;2023-07-08T14:13:10;101289.66;;;26.75
29701;BMP280;57917;51.380;-0.176;2023-07-08T14:19:00;101289.63;;;26.72
29701;BMP280;57917;51.380;-0.176;2023-07-08T14:24:53;101293.50;;;26.74
29701;BMP280;57917;51.380;-0.176;2023-07-08T14:30:49;101314.25;;;26.96
29701;BMP280;57917;51.380;-0.176;2023-07-08T14:36:36;101317.28;;;26.84
29701;BMP280;57917;51.380;-0.176;2023-07-08T14:42:22;101323.53;;;26.92
29701;BMP280;57917;51.380;-0.176;2023-07-08T14:48:15;101323.22;;;27.00
29701;BMP280;57917;51.380;-0.176;2023-07-08T14:54:02;101327.06;;;26.99
29701;BMP280;57917;51.380;-0.176;2023-07-08T14:59:51;101321.41;;;27.22
29701;BMP280;57917;51.380;-0.176;2023-07-08T15:05:39;101292.28;;;27.19
29701;BMP280;57917;51.380;-0.176;2023-07-08T15:11:31;101277.31;;;26.88
29701;BMP280;57917;51.380;-0.176;2023-07-08T15:17:21;101303.09;;;27.12
29701;BMP280;57917;51.380;-0.176;2023-07-08T15:23:09;101304.59;;;27.06
29701;BMP280;57917;51.380;-0.176;2023-07-08T15:28:59;101288.25;;;26.99
29701;BMP280;57917;51.380;-0.176;2023-07-08T15:34:47;101284.44;;;27.14
29701;BMP280;57917;51.380;-0.176;2023-07-08T15:40:35;101282.44;;;27.04
29701;BMP280;57917;51.380;-0.176;2023-07-08T15:46:34;101277.53;;;27.23
29701;BMP280;57917;51.380;-0.176;2023-07-08T15:52:24;101277.81;;;27.08
29701;BMP280;57917;51.380;-0.176;2023-07-08T15:58:27;101287.66;;;27.30
29701;BMP280;57917;51.380;-0.176;2023-07-08T16:04:22;101285.97;;;27.08
29701;BMP280;57917;51.380;-0.176;2023-07-08T16:10:10;101307.13;;;27.39
29701;BMP280;57917;51.380;-0.176;2023-07-08T16:15:58;101304.91;;;27.58
29701;BMP280;57917;51.380;-0.176;2023-07-08T16:21:48;101306.84;;;27.61
29701;BMP280;57917;51.380;-0.176;2023-07-08T16:27:36;101286.97;;;27.47
29701;BMP280;57917;51.380;-0.176;2023-07-08T16:33:25;101285.41;;;27.46
29701;BMP280;57917;51.380;-0.176;2023-07-08T16:39:16;101282.69;;;27.46
29701;BMP280;57917;51.380;-0.176;2023-07-08T16:45:10;101275.66;;;27.38
29701;BMP280;57917;51.380;-0.176;2023-07-08T16:51:01;101280.63;;;27.25
29701;BMP280;57917;51.380;-0.176;2023-07-08T16:56:48;101274.34;;;27.11
29701;BMP280;57917;51.380;-0.176;2023-07-08T17:02:36;101296.34;;;26.92
29701;BMP280;57917;51.380;-0.176;2023-07-08T17:08:23;101280.28;;;26.73
29701;BMP280;57917;51.380;-0.176;2023-07-08T17:14:15;101287.56;;;26.62
29701;BMP280;57917;51.380;-0.176;2023-07-08T17:20:14;101259.28;;;26.66
29701;BMP280;57917;51.380;-0.176;2023-07-08T17:26:04;101261.56;;;26.61
29701;BMP280;57917;51.380;-0.176;2023-07-08T17:31:53;101269.53;;;26.40
29701;BMP280;57917;51.380;-0.176;2023-07-08T17:37:45;101282.69;;;26.38
29701;BMP280;57917;51.380;-0.176;2023-07-08T17:43:34;101252.34;;;26.29
29701;BMP280;57917;51.380;-0.176;2023-07-08T17:49:31;101255.50;;;26.31
29701;BMP280;57917;51.380;-0.176;2023-07-08T17:55:19;101268.31;;;26.30
29701;BMP280;57917;51.380;-0.176;2023-07-08T18:01:09;101268.78;;;26.03
29701;BMP280;57917;51.380;-0.176;2023-07-08T18:06:59;101256.72;;;26.00
29701;BMP280;57917;51.380;-0.176;2023-07-08T18:12:54;101273.41;;;25.99
29701;BMP280;57917;51.380;-0.176;2023-07-08T18:18:44;101280.97;;;25.86
29701;BMP280;57917;51.380;-0.176;2023-07-08T18:24:31;101280.41;;;25.70
29701;BMP280;57917;51.380;-0.176;2023-07-08T18:30:20;101289.97;;;25.61
29701;BMP280;57917;51.380;-0.176;2023-07-08T18:36:14;101302.59;;;25.50
29701;BMP280;57917;51.380;-0.176;2023-07-08T18:42:08;101300.59;;;25.43
29701;BMP280;57917;51.380;-0.176;2023-07-08T18:48:09;101305.97;;;25.40
29701;BMP280;57917;51.380;-0.176;2023-07-08T18:53:59;101314.91;;;25.18
29701;BMP280;57917;51.380;-0.176;2023-07-08T18:59:46;101319.19;;;25.19
29701;BMP280;57917;51.380;-0.176;2023-07-08T19:05:34;101341.47;;;25.09
29701;BMP280;57917;51.380;-0.176;2023-07-08T19:11:26;101335.84;;;24.95
29701;BMP280;57917;51.380;-0.176;2023-07-08T19:17:14;101327.75;;;24.53
29701;BMP280;57917;51.380;-0.176;2023-07-08T19:23:14;101351.91;;;24.62
29701;BMP280;57917;51.380;-0.176;2023-07-08T19:29:04;101314.19;;;24.31
29701;BMP280;57917;51.380;-0.176;2023-07-08T19:34:54;101326.69;;;24.39
29701;BMP280;57917;51.380;-0.176;2023-07-08T19:40:48;101345.16;;;24.33
29701;BMP280;57917;51.380;-0.176;2023-07-08T19:46:40;101324.00;;;24.20
29701;BMP280;57917;51.380;-0.176;2023-07-08T19:52:30;101310.34;;;23.94
29701;BMP280;57917;51.380;-0.176;2023-07-08T19:58:20;101311.03;;;23.91
29701;BMP280;57917;51.380;-0.176;2023-07-08T20:04:12;101334.63;;;24.09
29701;BMP280;57917;51.380;-0.176;2023-07-08T20:10:15;101362.16;;;23.96
29701;BMP280;57917;51.380;-0.176;2023-07-08T20:22:16;101394.28;;;23.82
29701;BMP280;57917;51.380;-0.176;2023-07-08T20:28:10;101384.63;;;23.81
29701;BMP280;57917;51.380;-0.176;2023-07-08T20:33:57;101383.75;;;23.77
29701;BMP280;57917;51.380;-0.176;2023-07-08T20:39:49;101377.47;;;23.73
29701;BMP280;57917;51.380;-0.176;2023-07-08T20:52:59;101402.00;;;23.64
29701;BMP280;57917;51.380;-0.176;2023-07-08T20:59:02;101392.66;;;23.62
29701;BMP280;57917;51.380;-0.176;2023-07-08T21:05:13;101385.69;;;23.45
29701;BMP280;57917;51.380;-0.176;2023-07-08T21:11:01;101398.25;;;23.38
29701;BMP280;57917;51.380;-0.176;2023-07-08T21:16:54;101394.56;;;23.15
29701;BMP280;57917;51.380;-0.176;2023-07-08T21:22:55;101404.50;;;23.26
29701;BMP280;57917;51.380;-0.176;2023-07-08T21:28:48;101403.56;;;23.19
29701;BMP280;57917;51.380;-0.176;2023-07-08T21:34:36;101404.31;;;23.04
29701;BMP280;57917;51.380;-0.176;2023-07-08T21:40:30;101395.94;;;22.93
29701;BMP280;57917;51.380;-0.176;2023-07-08T21:46:34;101407.88;;;22.65
29701;BMP280;57917;51.380;-0.176;2023-07-08T21:52:25;101420.28;;;22.54
29701;BMP280;57917;51.380;-0.176;2023-07-08T21:58:16;101422.34;;;22.45
29701;BMP280;57917;51.380;-0.176;2023-07-08T22:04:19;101419.22;;;22.43
29701;BMP280;57917;51.380;-0.176;2023-07-08T22:10:17;101413.63;;;22.24
29701;BMP280;57917;51.380;-0.176;2023-07-08T22:16:16;101408.44;;;22.18
29701;BMP280;57917;51.380;-0.176;2023-07-08T22:22:03;101411.94;;;22.19
29701;BMP280;57917;51.380;-0.176;2023-07-08T22:27:52;101405.72;;;22.31
29701;BMP280;57917;51.380;-0.176;2023-07-08T22:34:02;101409.78;;;22.37
29701;BMP280;57917;51.380;-0.176;2023-07-08T22:39:55;101413.19;;;22.22
29701;BMP280;57917;51.380;-0.176;2023-07-08T22:45:44;101405.53;;;22.24
29701;BMP280;57917;51.380;-0.176;2023-07-08T22:51:50;101409.03;;;22.12
29701;BMP280;57917;51.380;-0.176;2023-07-08T22:57:46;101413.84;;;22.06
29701;BMP280;57917;51.380;-0.176;2023-07-08T23:03:35;101397.34;;;21.96
29701;BMP280;57917;51.380;-0.176;2023-07-08T23:09:24;101421.38;;;21.89
29701;BMP280;57917;51.380;-0.176;2023-07-08T23:15:11;101426.56;;;21.94
29701;BMP280;57917;51.380;-0.176;2023-07-08T23:21:04;101429.13;;;21.66
29701;BMP280;57917;51.380;-0.176;2023-07-08T23:26:51;101430.81;;;21.47
29701;BMP280;57917;51.380;-0.176;2023-07-08T23:32:39;101442.94;;;21.53
29701;BMP280;57917;51.380;-0.176;2023-07-08T23:38:29;101443.69;;;21.41
29701;BMP280;57917;51.380;-0.176;2023-07-08T23:44:20;101449.50;;;21.31
29701;BMP280;57917;51.380;-0.176;2023-07-08T23:50:18;101433.75;;;21.21
29701;BMP280;57917;51.380;-0.176;2023-07-08T23:56:11;101438.47;;;21.24
